createdAt,value
2022-10-23T00:00:39.180Z,101560.31
2022-10-23T00:03:06.158Z,101552.84
2022-10-23T00:05:32.881Z,101546.19
2022-10-23T00:08:00.861Z,101558.13
2022-10-23T00:10:28.333Z,101557.09
2022-10-23T00:12:55.404Z,101549.41
2022-10-23T00:15:23.350Z,101561.56
2022-10-23T00:17:50.209Z,101564.19
2022-10-23T00:20:17.338Z,101562.44
2022-10-23T00:22:44.013Z,101567.13
2022-10-23T00:25:11.017Z,101560.44
2022-10-23T00:27:37.659Z,101556.41
2022-10-23T00:30:05.819Z,101563.75
2022-10-23T00:35:04.129Z,101558.31
2022-10-23T00:37:31.257Z,101560.38
2022-10-23T00:39:57.844Z,101555.09
2022-10-23T00:42:24.501Z,101550.03
2022-10-23T00:44:50.894Z,101543.97
2022-10-23T00:47:18.245Z,101543.16
2022-10-23T00:49:44.733Z,101537.56
2022-10-23T00:52:13.522Z,101546.25
2022-10-23T00:54:42.187Z,101543.16
2022-10-23T00:57:13.323Z,101540.75
2022-10-23T00:59:40.984Z,101548.09
2022-10-23T01:02:08.013Z,101551.53
2022-10-23T01:04:35.014Z,101543.84
2022-10-23T01:07:04.473Z,101538.78
2022-10-23T01:09:45.966Z,101535.34
2022-10-23T01:13:29.582Z,101546.91
2022-10-23T01:16:10.962Z,101553.41
2022-10-23T01:18:46.509Z,101543.69
2022-10-23T01:21:29.453Z,101533.59
2022-10-23T01:24:11.088Z,101532.41
2022-10-23T01:26:49.632Z,101537.09
2022-10-23T01:29:49.486Z,101531.38
2022-10-23T01:32:40.509Z,101531.97
2022-10-23T01:43:01.983Z,101525.84
2022-10-23T01:45:31.573Z,101523.44
2022-10-23T01:48:00.840Z,101516.78
2022-10-23T01:50:30.227Z,101519.03
2022-10-23T01:52:57.128Z,101523.72
2022-10-23T01:55:25.129Z,101517.06
2022-10-23T01:57:53.457Z,101508.78
2022-10-23T02:00:20.921Z,101504.75
2022-10-23T02:02:50.230Z,101504.75
2022-10-23T02:05:28.949Z,101499.06
2022-10-23T02:07:56.235Z,101488.53
2022-10-23T02:10:31.415Z,101488.97
2022-10-23T02:13:18.463Z,101491.59
2022-10-23T02:15:51.867Z,101480.47
2022-10-23T02:18:44.517Z,101484.34
2022-10-23T02:21:16.757Z,101475.25
2022-10-23T02:24:07.506Z,101470.47
2022-10-23T02:26:38.524Z,101470.69
2022-10-23T02:29:14.575Z,101464.84
2022-10-23T02:31:41.194Z,101460.22
2022-10-23T02:34:07.678Z,101442.81
2022-10-23T02:36:34.296Z,101448.66
2022-10-23T02:39:00.758Z,101451.09
2022-10-23T02:41:59.966Z,101451.09
2022-10-23T02:44:55.546Z,101458.38
2022-10-23T02:48:15.882Z,101454.16
2022-10-23T02:50:56.988Z,101459.03
2022-10-23T02:53:31.069Z,101456.84
2022-10-23T02:56:14.379Z,101455.88
2022-10-23T02:59:16.298Z,101454.69
2022-10-23T03:01:48.614Z,101452.88
2022-10-23T03:04:17.604Z,101456.75
2022-10-23T03:06:44.978Z,101441.38
2022-10-23T03:09:12.021Z,101438.97
2022-10-23T03:11:38.451Z,101433.13
2022-10-23T03:14:04.889Z,101431.88
2022-10-23T03:16:31.301Z,101431.06
2022-10-23T03:18:57.870Z,101427.41
2022-10-23T03:21:24.521Z,101421.56
2022-10-23T03:23:50.962Z,101415.06
2022-10-23T03:26:17.417Z,101414.28
2022-10-23T03:28:43.863Z,101422.97
2022-10-23T03:31:10.471Z,101416.69
2022-10-23T03:33:37.050Z,101409.59
2022-10-23T03:36:03.651Z,101413.84
2022-10-23T03:38:30.135Z,101408.56
2022-10-23T03:40:56.572Z,101402.50
2022-10-23T03:43:23.061Z,101404.34
2022-10-23T03:45:50.907Z,101401.25
2022-10-23T03:48:17.885Z,101398.41
2022-10-23T03:50:44.356Z,101395.78
2022-10-23T03:53:10.835Z,101390.31
2022-10-23T03:55:37.328Z,101380.00
2022-10-23T03:58:03.789Z,101378.97
2022-10-23T04:00:30.306Z,101376.94
2022-10-23T04:02:56.805Z,101372.47
2022-10-23T04:05:23.284Z,101368.03
2022-10-23T04:07:49.687Z,101359.09
2022-10-23T04:10:16.248Z,101356.47
2022-10-23T04:12:43.034Z,101354.44
2022-10-23T04:15:09.996Z,101356.63
2022-10-23T04:17:36.465Z,101356.19
2022-10-23T04:20:03.214Z,101354.00
2022-10-23T04:22:29.840Z,101341.84
2022-10-23T04:24:56.397Z,101345.88
2022-10-23T04:27:22.895Z,101340.19
2022-10-23T04:29:49.480Z,101346.81
2022-10-23T04:32:16.116Z,101340.09
2022-10-23T04:34:42.588Z,101339.06
2022-10-23T04:37:09.223Z,101329.34
2022-10-23T04:39:35.701Z,101332.22
2022-10-23T04:42:02.189Z,101330.16
2022-10-23T04:44:28.639Z,101320.75
2022-10-23T04:46:55.211Z,101323.97
2022-10-23T04:49:21.676Z,101326.16
2022-10-23T04:51:48.140Z,101319.09
2022-10-23T04:54:14.638Z,101318.28
2022-10-23T04:56:41.112Z,101312.22
2022-10-23T04:59:07.607Z,101313.38
2022-10-23T05:01:34.170Z,101307.88
2022-10-23T05:04:00.664Z,101311.31
2022-10-23T05:06:27.205Z,101306.50
2022-10-23T05:08:53.702Z,101300.00
2022-10-23T05:15:11.826Z,101308.59
2022-10-23T05:17:41.730Z,101309.19
2022-10-23T05:20:12.750Z,101298.22
2022-10-23T05:22:42.340Z,101303.84
2022-10-23T05:25:09.778Z,101304.41
2022-10-23T05:27:36.208Z,101311.06
2022-10-23T05:30:02.679Z,101308.75
2022-10-23T05:32:31.919Z,101308.91
2022-10-23T05:35:00.791Z,101308.44
2022-10-23T05:37:27.524Z,101297.81
2022-10-23T05:39:54.028Z,101300.22
2022-10-23T05:42:20.431Z,101303.78
2022-10-23T05:44:46.887Z,101301.28
2022-10-23T05:47:13.350Z,101295.09
2022-10-23T05:49:39.820Z,101299.09
2022-10-23T05:52:06.255Z,101298.06
2022-10-23T05:54:32.816Z,101290.97
2022-10-23T05:56:59.261Z,101296.25
2022-10-23T05:59:25.924Z,101289.13
2022-10-23T06:01:52.433Z,101289.50
2022-10-23T06:04:19.109Z,101281.59
2022-10-23T06:06:52.742Z,101278.94
2022-10-23T06:29:41.587Z,101259.03
2022-10-23T07:12:29.623Z,101228.06
2022-10-23T07:39:18.699Z,101212.25
2022-10-23T07:50:52.775Z,101199.88
2022-10-23T07:57:12.007Z,101203.06
2022-10-23T08:03:33.493Z,101187.03
2022-10-23T08:10:13.625Z,101186.53
2022-10-23T08:16:22.837Z,101185.56
2022-10-23T08:23:20.384Z,101189.09
2022-10-23T08:29:37.677Z,101184.00
2022-10-23T08:32:04.398Z,101177.72
2022-10-23T08:34:31.415Z,101171.19
2022-10-23T08:37:23.726Z,101166.47
2022-10-23T08:48:15.306Z,101143.69
2022-10-23T08:50:45.236Z,101139.78
2022-10-23T08:53:18.995Z,101136.13
2022-10-23T08:56:01.820Z,101137.75
2022-10-23T09:06:49.612Z,101138.19
2022-10-23T09:14:28.918Z,101118.72
2022-10-23T09:17:23.365Z,101105.75
2022-10-23T09:20:05.389Z,101096.25
2022-10-23T09:22:31.906Z,101108.19
2022-10-23T09:24:58.336Z,101099.69
2022-10-23T09:27:24.842Z,101099.19
2022-10-23T09:29:54.482Z,101096.53
2022-10-23T09:32:36.934Z,101091.75
2022-10-23T09:35:05.513Z,101090.69
2022-10-23T09:37:35.933Z,101095.72
2022-10-23T09:40:18.023Z,101081.91
2022-10-23T09:43:04.013Z,101092.78
2022-10-23T09:45:35.221Z,101079.50
2022-10-23T09:48:19.226Z,101067.81
2022-10-23T09:51:15.901Z,101075.28
2022-10-23T09:54:00.306Z,101064.91
2022-10-23T09:56:35.212Z,101069.16
2022-10-23T09:59:23.949Z,101064.91
2022-10-23T10:02:03.980Z,101063.84
2022-10-23T10:04:39.023Z,101069.44
2022-10-23T10:07:19.503Z,101059.41
2022-10-23T10:09:46.122Z,101052.25
2022-10-23T10:12:38.490Z,101063.13
2022-10-23T10:15:18.232Z,101044.53
2022-10-23T10:21:22.572Z,101040.28
2022-10-23T10:24:27.286Z,101036.03
2022-10-23T10:27:09.682Z,101035.50
2022-10-23T10:33:22.057Z,101014.75
2022-10-23T10:36:13.510Z,101008.91
2022-10-23T10:38:52.846Z,101006.50
2022-10-23T10:41:33.116Z,101001.72
2022-10-23T10:44:14.853Z,100999.31
2022-10-23T10:46:48.099Z,100998.00
2022-10-23T10:49:38.235Z,100982.84
2022-10-23T10:52:33.899Z,100980.44
2022-10-23T10:55:32.170Z,100959.16
2022-10-23T10:58:23.449Z,100958.03
2022-10-23T11:00:55.810Z,100938.09
2022-10-23T11:03:39.820Z,100952.44
2022-10-23T11:06:14.902Z,100948.69
2022-10-23T11:08:56.249Z,100965.16
2022-10-23T11:11:34.794Z,100945.19
2022-10-23T11:14:02.247Z,100951.25
2022-10-23T11:16:36.314Z,100944.84
2022-10-23T11:19:24.871Z,100937.94
2022-10-23T11:22:05.097Z,100940.59
2022-10-23T11:24:58.498Z,100934.22
2022-10-23T11:27:54.377Z,100929.13
2022-10-23T11:30:31.007Z,100921.09
2022-10-23T11:33:19.166Z,100913.06
2022-10-23T11:35:57.370Z,100904.66
2022-10-23T11:38:36.770Z,100898.41
2022-10-23T11:41:07.022Z,100896.91
2022-10-23T11:43:46.517Z,100886.13
2022-10-23T11:46:15.848Z,100884.94
2022-10-23T11:48:44.255Z,100883.75
2022-10-23T11:51:25.955Z,100871.13
2022-10-23T11:53:52.450Z,100870.13
2022-10-23T11:56:21.820Z,100873.50
2022-10-23T11:58:57.304Z,100854.50
2022-10-23T12:01:45.588Z,100858.63
2022-10-23T12:04:15.143Z,100847.28
2022-10-23T12:06:45.466Z,100843.19
2022-10-23T12:09:30.042Z,100861.50
2022-10-23T12:12:08.717Z,100848.72
2022-10-23T12:14:40.967Z,100847.66
2022-10-23T12:17:22.353Z,100849.81
2022-10-23T12:20:09.130Z,100842.53
2022-10-23T12:23:05.948Z,100834.81
2022-10-23T12:26:01.425Z,100816.38
2022-10-23T12:28:44.747Z,100808.06
2022-10-23T12:31:47.791Z,100797.03
2022-10-23T12:34:51.578Z,100807.63
2022-10-23T12:37:51.526Z,100800.19
2022-10-23T12:40:18.022Z,100797.81
2022-10-23T12:42:53.954Z,100799.47
2022-10-23T12:45:27.417Z,100797.31
2022-10-23T12:47:54.613Z,100790.03
2022-10-23T12:50:25.562Z,100780.69
2022-10-23T12:53:03.522Z,100787.00
2022-10-23T12:56:05.733Z,100780.84
2022-10-23T12:58:34.626Z,100764.56
2022-10-23T13:01:04.291Z,100766.13
2022-10-23T13:03:33.158Z,100754.88
2022-10-23T13:06:04.126Z,100754.50
2022-10-23T13:08:41.778Z,100745.72
2022-10-23T13:11:12.111Z,100740.06
2022-10-23T13:13:40.573Z,100742.44
2022-10-23T13:16:15.142Z,100741.06
2022-10-23T13:18:42.336Z,100744.03
2022-10-23T13:21:17.751Z,100732.56
2022-10-23T13:23:44.447Z,100730.88
2022-10-23T13:26:34.141Z,100720.91
2022-10-23T13:29:08.752Z,100710.44
2022-10-23T13:31:36.246Z,100709.06
2022-10-23T13:34:02.591Z,100703.09
2022-10-23T13:36:35.880Z,100691.53
2022-10-23T13:39:14.774Z,100685.09
2022-10-23T13:41:43.677Z,100687.47
2022-10-23T13:44:17.997Z,100676.69
2022-10-23T13:46:45.039Z,100676.00
2022-10-23T13:49:11.582Z,100667.97
2022-10-23T13:51:55.599Z,100665.03
2022-10-23T13:54:25.947Z,100653.06
2022-10-23T13:56:54.131Z,100656.03
2022-10-23T13:59:21.119Z,100656.13
2022-10-23T14:01:49.319Z,100650.88
2022-10-23T14:04:17.391Z,100649.78
2022-10-23T14:06:44.459Z,100650.59
2022-10-23T14:09:16.171Z,100641.59
2022-10-23T14:11:42.933Z,100644.34
2022-10-23T14:14:09.581Z,100637.44
2022-10-23T14:16:36.211Z,100631.78
2022-10-23T14:19:03.013Z,100637.44
2022-10-23T14:21:29.452Z,100623.63
2022-10-23T14:23:55.959Z,100631.50
2022-10-23T14:26:25.613Z,100615.69
2022-10-23T14:28:53.840Z,100625.16
2022-10-23T14:31:20.585Z,100626.72
2022-10-23T14:33:52.161Z,100629.00
2022-10-23T14:38:54.807Z,100628.66
2022-10-23T14:41:22.118Z,100621.88
2022-10-23T14:43:48.585Z,100624.75
2022-10-23T14:46:20.453Z,100623.09
2022-10-23T14:48:50.962Z,100626.94
2022-10-23T14:51:27.514Z,100627.38
2022-10-23T14:53:58.851Z,100625.00
2022-10-23T14:56:26.032Z,100623.44
2022-10-23T14:58:52.597Z,100621.66
2022-10-23T15:01:19.572Z,100615.31
2022-10-23T15:03:46.245Z,100611.38
2022-10-23T15:06:16.041Z,100593.28
2022-10-23T15:08:44.761Z,100588.81
2022-10-23T15:11:12.668Z,100587.63
2022-10-23T15:13:42.055Z,100593.38
2022-10-23T15:16:13.424Z,100589.22
2022-10-23T15:18:40.101Z,100588.81
2022-10-23T15:21:08.355Z,100582.78
2022-10-23T15:23:37.909Z,100586.63
2022-10-23T15:26:11.603Z,100583.88
2022-10-23T15:28:38.457Z,100580.31
2022-10-23T15:31:05.988Z,100570.31
2022-10-23T15:33:32.472Z,100555.47
2022-10-23T15:35:58.902Z,100559.31
2022-10-23T15:38:26.103Z,100561.31
2022-10-23T15:40:58.367Z,100560.09
2022-10-23T15:43:24.876Z,100549.53
2022-10-23T15:45:51.351Z,100548.53
2022-10-23T15:48:17.836Z,100547.03
2022-10-23T15:50:44.366Z,100542.28
2022-10-23T15:53:10.848Z,100547.88
2022-10-23T15:55:38.794Z,100540.75
2022-10-23T15:58:05.922Z,100532.28
2022-10-23T16:00:35.904Z,100525.56
2022-10-23T16:03:02.709Z,100517.38
2022-10-23T16:05:29.249Z,100513.41
2022-10-23T16:07:55.724Z,100502.25
2022-10-23T16:10:26.118Z,100495.13
2022-10-23T16:12:53.297Z,100505.09
2022-10-23T16:15:20.011Z,100498.97
2022-10-23T16:17:46.697Z,100506.75
2022-10-23T16:20:13.227Z,100503.88
2022-10-23T16:22:42.684Z,100507.09
2022-10-23T16:25:11.391Z,100515.59
2022-10-23T16:27:37.861Z,100511.84
2022-10-23T16:30:07.596Z,100514.50
2022-10-23T16:32:34.057Z,100509.78
2022-10-23T16:35:01.142Z,100506.09
2022-10-23T16:37:27.708Z,100507.19
2022-10-23T16:39:54.274Z,100497.13
2022-10-23T16:42:20.781Z,100496.63
2022-10-23T16:44:48.272Z,100495.34
2022-10-23T16:47:14.784Z,100497.44
2022-10-23T16:49:41.404Z,100489.72
2022-10-23T16:52:07.925Z,100499.09
2022-10-23T16:54:34.543Z,100492.97
2022-10-23T16:57:01.049Z,100485.84
2022-10-23T16:59:27.587Z,100495.19
2022-10-23T17:01:54.249Z,100496.28
2022-10-23T17:04:20.826Z,100499.22
2022-10-23T17:20:40.455Z,100507.94
2022-10-23T17:23:06.945Z,100498.16
2022-10-23T17:25:33.787Z,100498.75
2022-10-23T17:33:05.633Z,100487.38
2022-10-23T17:43:47.032Z,100490.38
2022-10-23T17:57:57.897Z,100491.19
2022-10-23T18:16:03.871Z,100465.31
2022-10-23T18:18:30.639Z,100471.63
2022-10-23T18:23:52.866Z,100466.25
2022-10-23T18:41:54.392Z,100442.91
2022-10-23T18:48:28.576Z,100442.50
2022-10-23T18:55:28.588Z,100446.94
2022-10-23T19:05:45.113Z,100440.47
2022-10-23T19:25:48.449Z,100426.91
2022-10-23T19:28:15.122Z,100428.00
2022-10-23T19:30:41.609Z,100424.84
2022-10-23T19:33:42.680Z,100420.00
2022-10-23T19:40:49.929Z,100437.50
2022-10-23T20:19:07.846Z,100498.56
2022-10-23T20:22:17.736Z,100509.25
2022-10-23T20:24:44.385Z,100510.91
2022-10-23T20:27:13.693Z,100516.50
2022-10-23T20:33:44.112Z,100521.66
2022-10-23T20:36:32.277Z,100526.47
2022-10-23T20:39:01.483Z,100532.63
2022-10-23T20:41:28.967Z,100533.75
2022-10-23T20:43:56.285Z,100527.16
2022-10-23T20:58:44.516Z,100563.81
2022-10-23T21:09:30.811Z,100538.88
2022-10-23T21:11:58.288Z,100554.84
2022-10-23T21:14:24.889Z,100556.47
2022-10-23T21:16:51.840Z,100563.13
2022-10-23T21:59:37.659Z,100562.66
2022-10-23T22:06:30.552Z,100561.31
2022-10-23T22:32:45.972Z,100545.97
2022-10-23T22:47:15.428Z,100542.75
2022-10-23T23:07:56.406Z,100525.72
2022-10-23T23:10:23.029Z,100530.72
2022-10-23T23:12:52.746Z,100519.34
2022-10-23T23:23:30.759Z,100506.16
2022-10-23T23:49:52.671Z,100479.69
2022-10-23T23:56:46.525Z,100475.09
2022-10-23T23:59:12.965Z,100481.44
